Time;durP1;ratioP1;P1;durP2;ratioP2;P2;SDS_P1;SDS_P2;PMS_P1;PMS_P2;Temp;Humidity;BMP_temperature;BMP_pressure;BME280_temperature;BME280_humidity;BME280_pressure;Samples;Min_cycle;Max_cycle;Signal;HPM_P1;HPM_P2
2023/11/01 00:00:27;;;;;;;4.03;1.33;;;7.80;99.90;;;;;;2095163;28;20224;-72
2023/11/01 00:01:28;;;;;;;3.37;1.60;;;7.80;99.90;;;;;;2095698;28;20223;-73
2023/11/01 00:02:28;;;;;;;3.73;1.37;;;7.80;99.90;;;;;;2095331;28;20720;-72
2023/11/01 00:03:29;;;;;;;3.67;1.57;;;7.70;99.90;;;;;;2095878;28;20612;-72
2023/11/01 00:04:30;;;;;;;4.97;1.50;;;7.60;99.90;;;;;;2085753;28;20714;-72
2023/11/01 00:05:31;;;;;;;2.20;1.60;;;7.60;99.90;;;;;;2094417;28;20235;-72
2023/11/01 00:06:32;;;;;;;3.40;1.30;;;7.70;99.90;;;;;;2094633;28;20274;-73
2023/11/01 00:07:32;;;;;;;5.13;1.53;;;7.60;99.90;;;;;;2095493;28;20724;-73
2023/11/01 00:08:33;;;;;;;2.70;1.40;;;7.60;99.90;;;;;;2093032;28;20232;-71
2023/11/01 00:09:34;;;;;;;1.50;1.20;;;7.50;99.90;;;;;;2095578;28;20227;-72
2023/11/01 00:10:34;;;;;;;5.93;1.70;;;7.60;99.90;;;;;;2095805;28;20281;-75
2023/11/01 00:11:35;;;;;;;6.10;1.47;;;7.40;99.90;;;;;;2093742;28;20232;-73
2023/11/01 00:12:35;;;;;;;3.93;1.60;;;7.30;99.90;;;;;;2095837;28;20356;-74
2023/11/01 00:13:36;;;;;;;4.30;1.60;;;7.30;99.90;;;;;;2096091;28;20259;-73
2023/11/01 00:14:36;;;;;;;3.00;1.50;;;7.20;99.90;;;;;;2095658;28;20352;-73
2023/11/01 00:15:37;;;;;;;3.63;1.50;;;7.20;99.90;;;;;;2095325;28;20805;-73
2023/11/01 00:16:38;;;;;;;3.97;1.63;;;7.20;99.90;;;;;;2095531;28;20239;-73
2023/11/01 00:17:39;;;;;;;3.40;1.30;;;7.20;99.90;;;;;;2092996;28;20236;-73
2023/11/01 00:18:39;;;;;;;3.60;1.58;;;7.20;99.90;;;;;;2095661;28;20227;-73
2023/11/01 00:19:40;;;;;;;5.00;1.30;;;7.10;99.90;;;;;;2095736;28;20732;-73
2023/11/01 00:20:41;;;;;;;5.60;1.43;;;7.10;99.90;;;;;;2094640;28;20229;-73
2023/11/01 00:21:42;;;;;;;5.17;1.43;;;7.10;99.90;;;;;;2094441;28;20231;-73
2023/11/01 00:22:42;;;;;;;3.87;1.83;;;7.10;99.90;;;;;;2095151;28;20242;-73
2023/11/01 00:23:43;;;;;;;3.20;1.67;;;7.20;99.90;;;;;;2097350;28;20649;-73
2023/11/01 00:24:43;;;;;;;3.07;1.40;;;7.10;99.90;;;;;;2088590;28;20655;-73
2023/11/01 00:25:44;;;;;;;4.57;1.63;;;7.20;99.90;;;;;;2094226;28;20277;-73
2023/11/01 00:26:44;;;;;;;2.30;1.47;;;7.20;99.90;;;;;;2095328;28;20233;-73
2023/11/01 00:27:45;;;;;;;2.20;1.40;;;7.20;99.90;;;;;;2093043;28;20811;-73
2023/11/01 00:28:46;;;;;;;2.73;1.50;;;7.20;99.90;;;;;;2094131;28;20358;-73
2023/11/01 00:29:47;;;;;;;2.97;1.50;;;7.20;99.90;;;;;;2093861;28;20234;-73
2023/11/01 00:30:48;;;;;;;3.60;1.35;;;7.30;99.90;;;;;;2093868;28;20292;-73
2023/11/01 00:31:48;;;;;;;4.63;1.80;;;7.40;99.90;;;;;;2095584;28;20312;-73
2023/11/01 00:32:49;;;;;;;3.50;1.50;;;7.50;99.90;;;;;;2095766;28;20243;-73
2023/11/01 00:33:50;;;;;;;3.10;1.13;;;7.50;99.90;;;;;;2094299;28;20314;-73
2023/11/01 00:34:51;;;;;;;6.43;1.53;;;7.40;99.90;;;;;;2093426;28;20238;-73
2023/11/01 00:35:51;;;;;;;1.40;1.13;;;7.40;99.90;;;;;;2093369;28;20243;-73
2023/11/01 00:36:53;;;;;;;2.17;1.20;;;7.40;99.90;;;;;;2095458;28;20227;-73
2023/11/01 00:37:54;;;;;;;4.00;1.35;;;7.40;99.90;;;;;;2087456;28;20227;-73
2023/11/01 00:38:54;;;;;;;2.63;1.30;;;7.40;99.90;;;;;;2085842;28;21741;-73
2023/11/01 00:39:55;;;;;;;6.97;1.70;;;7.40;99.90;;;;;;2093636;28;20241;-73
2023/11/01 00:40:55;;;;;;;3.90;1.73;;;7.40;99.90;;;;;;2102896;28;20222;-73
2023/11/01 00:41:56;;;;;;;1.27;1.13;;;7.40;99.90;;;;;;2095503;28;20230;-73
2023/11/01 00:42:57;;;;;;;2.17;1.43;;;7.50;99.90;;;;;;2087395;28;20767;-73
2023/11/01 00:43:57;;;;;;;3.67;1.27;;;7.40;99.90;;;;;;2095604;28;20238;-73
2023/11/01 00:44:58;;;;;;;4.17;1.20;;;7.30;99.90;;;;;;2095331;28;20241;-73
2023/11/01 00:45:59;;;;;;;3.57;1.40;;;7.30;99.90;;;;;;2096026;28;20601;-73
2023/11/01 00:46:59;;;;;;;3.27;1.40;;;7.30;99.90;;;;;;2096055;28;20302;-73
2023/11/01 00:48:00;;;;;;;2.13;1.30;;;7.20;99.90;;;;;;2096282;28;20269;-74
2023/11/01 00:49:00;;;;;;;5.53;1.40;;;7.20;99.90;;;;;;2095631;28;20245;-74
2023/11/01 00:50:01;;;;;;;3.27;1.20;;;7.20;99.90;;;;;;2095789;28;20238;-74
2023/11/01 00:51:02;;;;;;;3.45;1.30;;;7.20;99.90;;;;;;2087398;28;20235;-73
2023/11/01 00:52:03;;;;;;;3.83;1.40;;;7.10;99.90;;;;;;2093669;28;20333;-74
2023/11/01 00:53:04;;;;;;;2.30;1.33;;;7.10;99.90;;;;;;2095143;28;20257;-73
2023/11/01 00:54:05;;;;;;;4.13;1.37;;;7.20;99.90;;;;;;2095285;28;20563;-73
2023/11/01 00:55:07;;;;;;;3.03;1.35;;;7.20;99.90;;;;;;2094850;28;20601;-74
2023/11/01 00:56:08;;;;;;;6.88;1.38;;;7.20;99.90;;;;;;2095427;28;20201;-74
2023/11/01 00:57:08;;;;;;;3.73;1.23;;;7.30;99.90;;;;;;2085641;28;20227;-73
2023/11/01 00:58:09;;;;;;;5.80;1.60;;;7.40;99.90;;;;;;2085268;28;20184;-73
2023/11/01 00:59:10;;;;;;;2.57;1.00;;;7.30;99.90;;;;;;2095295;28;20211;-73
2023/11/01 01:00:11;;;;;;;2.83;1.20;;;7.40;99.90;;;;;;2095309;28;20257;-73
2023/11/01 01:01:11;;;;;;;4.72;1.30;;;7.50;99.90;;;;;;2094967;28;20236;-73
2023/11/01 01:02:12;;;;;;;4.40;1.50;;;7.50;99.90;;;;;;2095250;28;20272;-73
2023/11/01 01:03:12;;;;;;;6.30;1.20;;;7.50;99.90;;;;;;2095365;28;20187;-73
2023/11/01 01:04:13;;;;;;;1.83;1.17;;;7.60;99.90;;;;;;2095741;28;20186;-73
2023/11/01 01:05:14;;;;;;;2.90;1.30;;;7.50;99.90;;;;;;2094847;28;20579;-73
2023/11/01 01:06:15;;;;;;;4.45;1.40;;;7.50;99.90;;;;;;2094070;28;20202;-73
2023/11/01 01:07:15;;;;;;;3.03;1.13;;;7.50;99.90;;;;;;2094902;28;20234;-73
2023/11/01 01:08:16;;;;;;;5.70;1.27;;;7.50;99.90;;;;;;2096117;28;20190;-73
2023/11/01 01:09:17;;;;;;;2.97;1.13;;;7.50;99.90;;;;;;2095207;28;20253;-73
2023/11/01 01:10:17;;;;;;;2.60;1.20;;;7.30;99.90;;;;;;2093508;28;20689;-74
2023/11/01 01:11:19;;;;;;;4.97;1.40;;;7.20;99.90;;;;;;2092469;28;20191;-73
2023/11/01 01:12:20;;;;;;;2.95;1.25;;;7.20;99.90;;;;;;2094321;28;20199;-73
2023/11/01 01:13:20;;;;;;;2.40;1.20;;;7.10;99.90;;;;;;2096046;28;20233;-73
2023/11/01 01:14:21;;;;;;;2.33;1.37;;;7.00;99.90;;;;;;2096092;28;20325;-73
2023/11/01 01:15:21;;;;;;;3.10;1.20;;;6.90;99.90;;;;;;2095047;28;20340;-73
2023/11/01 01:16:22;;;;;;;2.63;1.40;;;6.80;99.90;;;;;;2086710;28;20254;-73
2023/11/01 01:17:23;;;;;;;5.90;1.30;;;6.80;99.90;;;;;;2095577;28;20639;-73
2023/11/01 01:18:23;;;;;;;2.40;1.40;;;6.80;99.90;;;;;;2095028;28;20227;-73
2023/11/01 01:19:24;;;;;;;3.33;1.10;;;6.90;99.90;;;;;;2095250;28;20703;-73
2023/11/01 01:20:25;;;;;;;4.73;1.37;;;6.90;99.90;;;;;;2094596;28;20234;-73
2023/11/01 01:21:25;;;;;;;7.07;1.60;;;6.90;99.90;;;;;;2095601;28;20901;-73
2023/11/01 01:22:26;;;;;;;2.30;1.30;;;6.90;99.90;;;;;;2095817;28;20247;-73
2023/11/01 01:23:27;;;;;;;2.33;1.53;;;6.90;99.90;;;;;;2093805;28;20228;-73
2023/11/01 01:24:28;;;;;;;4.30;1.40;;;6.80;99.90;;;;;;2095215;28;20320;-74
2023/11/01 01:25:28;;;;;;;4.33;1.40;;;6.70;99.90;;;;;;2086674;28;20234;-74
2023/11/01 01:26:29;;;;;;;2.60;1.40;;;6.80;99.90;;;;;;2094911;28;20224;-74
2023/11/01 01:27:30;;;;;;;2.50;1.30;;;6.80;99.90;;;;;;2095103;28;20294;-74
2023/11/01 01:28:30;;;;;;;2.40;1.33;;;6.80;99.90;;;;;;2095394;28;20257;-74
2023/11/01 01:29:31;;;;;;;2.33;1.40;;;6.90;99.90;;;;;;2095977;28;20231;-74
2023/11/01 01:30:32;;;;;;;3.80;1.47;;;6.90;99.90;;;;;;2095879;28;20235;-74
2023/11/01 01:31:36;;;;;;;3.23;1.30;;;7.00;99.90;;;;;;2095878;28;20322;-74
2023/11/01 01:32:36;;;;;;;4.00;1.40;;;7.00;99.90;;;;;;2090220;28;20239;-73
2023/11/01 01:33:37;;;;;;;1.83;1.20;;;7.10;99.90;;;;;;2094084;28;20377;-73
2023/11/01 01:34:37;;;;;;;2.30;1.60;;;7.10;99.90;;;;;;2095020;28;20380;-74
2023/11/01 01:35:38;;;;;;;3.90;1.47;;;7.10;99.90;;;;;;2084271;28;20228;-74
2023/11/01 01:36:38;;;;;;;1.83;1.10;;;7.00;99.90;;;;;;2095214;28;20239;-74
2023/11/01 01:37:40;;;;;;;2.87;1.40;;;7.00;99.90;;;;;;2094766;28;20605;-74
2023/11/01 01:38:40;;;;;;;3.13;1.20;;;6.80;99.90;;;;;;2094044;28;20319;-74
2023/11/01 01:39:41;;;;;;;2.83;1.37;;;6.90;99.90;;;;;;2095646;28;20659;-74
2023/11/01 01:40:41;;;;;;;2.03;1.30;;;7.00;99.90;;;;;;2091140;28;20292;-74
2023/11/01 01:41:42;;;;;;;2.70;1.40;;;7.00;99.90;;;;;;2094941;28;20223;-74
2023/11/01 01:42:42;;;;;;;1.70;1.17;;;6.80;99.90;;;;;;2093982;28;20246;-74
2023/11/01 01:43:43;;;;;;;3.80;1.30;;;6.90;99.90;;;;;;2091321;28;20605;-73
2023/11/01 01:44:44;;;;;;;4.50;1.10;;;6.90;99.90;;;;;;2093518;28;20732;-74
2023/11/01 01:45:47;;;;;;;2.10;1.10;;;6.90;99.90;;;;;;2091960;28;20241;-74
2023/11/01 01:46:48;;;;;;;3.10;1.20;;;6.80;99.90;;;;;;2094866;28;20732;-74
2023/11/01 01:47:49;;;;;;;4.20;1.30;;;6.80;99.90;;;;;;2093365;28;20227;-74
2023/11/01 01:48:49;;;;;;;2.63;1.13;;;6.80;99.90;;;;;;2091095;28;20227;-74
2023/11/01 01:49:52;;;;;;;5.40;1.40;;;6.90;99.90;;;;;;2090151;28;20284;-74
2023/11/01 01:50:53;;;;;;;1.65;1.10;;;6.90;99.90;;;;;;2088405;28;20232;-74
2023/11/01 01:51:53;;;;;;;3.73;1.53;;;6.80;99.90;;;;;;2093943;28;20227;-74
2023/11/01 01:52:54;;;;;;;2.40;1.33;;;6.70;99.90;;;;;;2088998;28;20295;-74
2023/11/01 01:53:55;;;;;;;2.30;1.50;;;6.70;99.90;;;;;;2087781;28;20254;-74
2023/11/01 01:54:56;;;;;;;3.38;1.60;;;6.80;99.90;;;;;;2091734;28;20242;-74
2023/11/01 01:55:58;;;;;;;2.03;1.40;;;6.70;99.90;;;;;;2091732;28;20247;-73
2023/11/01 01:56:59;;;;;;;3.33;1.40;;;6.50;99.90;;;;;;2093899;28;20768;-74
2023/11/01 01:58:00;;;;;;;3.25;1.55;;;6.50;99.90;;;;;;2092498;28;20764;-74
2023/11/01 01:59:01;;;;;;;1.70;1.17;;;6.60;99.90;;;;;;2091864;28;20223;-75
2023/11/01 02:00:02;;;;;;;3.00;1.42;;;6.60;99.90;;;;;;2094831;28;20600;-73
2023/11/01 02:01:04;;;;;;;2.72;1.30;;;6.50;99.90;;;;;;2085846;28;20200;-73
2023/11/01 02:02:08;;;;;;;1.48;1.33;;;6.50;99.90;;;;;;2085845;28;20242;-74
2023/11/01 02:03:08;;;;;;;3.38;1.40;;;6.40;99.90;;;;;;2094449;28;20175;-74
2023/11/01 02:04:09;;;;;;;4.43;1.20;;;6.40;99.90;;;;;;2092903;28;20259;-74
2023/11/01 02:05:10;;;;;;;3.83;1.50;;;6.50;99.90;;;;;;2094273;28;20214;-74
2023/11/01 02:06:11;;;;;;;1.98;1.30;;;6.40;99.90;;;;;;2090298;28;20181;-73
2023/11/01 02:07:12;;;;;;;4.17;1.50;;;6.40;99.90;;;;;;2092635;28;20258;-74
2023/11/01 02:08:12;;;;;;;3.17;1.37;;;6.40;99.90;;;;;;2094213;28;20559;-74
2023/11/01 02:09:16;;;;;;;2.17;1.40;;;6.30;99.90;;;;;;2093871;28;20199;-74
2023/11/01 02:10:16;;;;;;;5.35;1.55;;;6.30;99.90;;;;;;2086378;28;20207;-74
2023/11/01 02:11:17;;;;;;;6.07;1.53;;;6.30;99.90;;;;;;2085936;28;20188;-74
2023/11/01 02:12:18;;;;;;;4.73;1.47;;;6.30;99.90;;;;;;2090027;28;20766;-72
2023/11/01 02:13:20;;;;;;;2.90;1.20;;;6.20;99.90;;;;;;2095509;28;20178;-73
2023/11/01 02:14:21;;;;;;;3.28;1.30;;;6.30;99.90;;;;;;2095020;28;20187;-74
2023/11/01 02:15:21;;;;;;;3.88;1.50;;;6.40;99.90;;;;;;2093995;28;20231;-74
2023/11/01 02:16:22;;;;;;;2.80;1.30;;;6.50;99.90;;;;;;2081859;28;20237;-74
2023/11/01 02:17:23;;;;;;;2.55;1.27;;;6.50;99.90;;;;;;2093391;28;20233;-74
2023/11/01 02:18:24;;;;;;;2.77;1.50;;;6.50;99.90;;;;;;2093624;28;20231;-73
2023/11/01 02:19:24;;;;;;;4.23;1.50;;;6.60;99.90;;;;;;2094895;28;20684;-74
2023/11/01 02:20:26;;;;;;;3.20;1.50;;;6.70;99.90;;;;;;2095595;28;20706;-74
2023/11/01 02:21:27;;;;;;;2.90;1.45;;;6.60;99.90;;;;;;2094867;28;20678;-73
2023/11/01 02:22:28;;;;;;;1.80;1.10;;;6.70;99.90;;;;;;2096318;28;20235;-73
2023/11/01 02:23:32;;;;;;;4.47;1.30;;;6.70;99.90;;;;;;2100059;28;20291;-74
2023/11/01 02:24:33;;;;;;;2.60;1.27;;;6.80;99.90;;;;;;2101523;28;20295;-73
2023/11/01 02:25:33;;;;;;;2.27;1.27;;;6.90;99.90;;;;;;2099432;28;20231;-74
2023/11/01 02:26:34;;;;;;;2.53;1.17;;;6.90;99.90;;;;;;2095235;28;20364;-73
2023/11/01 02:27:35;;;;;;;1.77;1.40;;;7.00;99.90;;;;;;2095100;28;20243;-74
2023/11/01 02:28:35;;;;;;;6.17;1.70;;;6.90;99.90;;;;;;2093544;28;20228;-74
2023/11/01 02:29:36;;;;;;;2.30;1.53;;;6.80;99.90;;;;;;2093222;28;20329;-74
2023/11/01 02:30:39;;;;;;;2.87;1.47;;;6.90;99.90;;;;;;2095415;28;20723;-74
2023/11/01 02:31:41;;;;;;;4.82;1.50;;;6.90;99.90;;;;;;2092176;28;20733;-73
2023/11/01 02:32:42;;;;;;;5.70;1.15;;;6.90;99.90;;;;;;2094062;28;20251;-73
2023/11/01 02:33:43;;;;;;;3.65;2.13;;;6.90;99.90;;;;;;2090746;28;20249;-73
2023/11/01 02:34:44;;;;;;;1.53;1.37;;;6.80;99.90;;;;;;2093666;28;20223;-74
2023/11/01 02:35:44;;;;;;;1.63;1.33;;;6.80;99.90;;;;;;2091634;28;20240;-74
2023/11/01 02:36:45;;;;;;;2.80;1.30;;;6.80;99.90;;;;;;2089854;28;20427;-74
2023/11/01 02:37:48;;;;;;;3.00;1.67;;;6.80;99.90;;;;;;2088173;28;20239;-73
2023/11/01 02:38:48;;;;;;;2.83;1.40;;;6.70;99.90;;;;;;2092973;28;20297;-74
2023/11/01 02:39:49;;;;;;;3.60;1.57;;;6.80;99.90;;;;;;2080467;28;20297;-74
2023/11/01 02:40:50;;;;;;;3.73;1.27;;;6.80;99.90;;;;;;2080513;28;20263;-74
2023/11/01 02:41:51;;;;;;;3.80;1.30;;;6.70;99.90;;;;;;2087682;28;20369;-73
2023/11/01 02:42:53;;;;;;;2.23;1.20;;;6.80;99.90;;;;;;2092202;28;20697;-74
2023/11/01 02:43:54;;;;;;;3.20;1.40;;;6.80;99.90;;;;;;2093093;28;20302;-73
2023/11/01 02:44:54;;;;;;;2.87;1.20;;;6.90;99.90;;;;;;2088685;28;20766;-73
2023/11/01 02:45:55;;;;;;;3.67;1.40;;;6.70;99.90;;;;;;2090584;28;20239;-73
2023/11/01 02:46:55;;;;;;;1.83;1.10;;;6.70;99.90;;;;;;2082087;28;20226;-74
2023/11/01 02:47:56;;;;;;;3.20;1.70;;;6.70;99.90;;;;;;2085255;28;20228;-73
2023/11/01 02:48:56;;;;;;;5.00;1.43;;;6.50;99.90;;;;;;2094598;28;20236;-74
2023/11/01 02:49:57;;;;;;;1.97;1.23;;;6.40;99.90;;;;;;2092414;28;20271;-73
2023/11/01 02:50:58;;;;;;;5.67;1.90;;;6.30;99.90;;;;;;2094356;28;20231;-74
2023/11/01 02:51:58;;;;;;;5.50;1.83;;;6.20;99.90;;;;;;2094759;28;20215;-73
2023/11/01 02:52:59;;;;;;;4.67;1.20;;;6.20;99.90;;;;;;2089316;28;20216;-74
2023/11/01 02:53:59;;;;;;;2.90;1.13;;;6.30;99.90;;;;;;2091277;28;20224;-74
2023/11/01 02:55:06;;;;;;;3.17;1.43;;;6.30;99.90;;;;;;2095242;28;20215;-74
2023/11/01 02:56:07;;;;;;;3.33;1.33;;;6.30;99.90;;;;;;2090922;28;20307;-74
2023/11/01 02:57:07;;;;;;;2.43;1.20;;;6.10;99.90;;;;;;2085177;28;20188;-74
2023/11/01 02:58:08;;;;;;;2.43;1.30;;;6.00;99.90;;;;;;2083951;28;20175;-74
2023/11/01 02:59:09;;;;;;;3.07;1.50;;;6.00;99.90;;;;;;2089184;28;20196;-74
2023/11/01 03:00:19;;;;;;;3.10;1.30;;;6.00;99.90;;;;;;2094307;28;20198;-73
2023/11/01 03:01:21;;;;;;;2.22;1.25;;;6.00;99.90;;;;;;2095410;28;20175;-74
2023/11/01 03:02:22;;;;;;;2.13;1.13;;;6.10;99.90;;;;;;2090054;28;20231;-74
2023/11/01 03:03:22;;;;;;;5.00;1.43;;;6.10;99.90;;;;;;2087438;28;20232;-73
2023/11/01 03:04:23;;;;;;;2.83;1.50;;;6.20;99.90;;;;;;2095636;28;20231;-74
2023/11/01 03:05:28;;;;;;;1.87;1.40;;;6.30;99.90;;;;;;2088184;28;20220;-71
2023/11/01 03:06:29;;;;;;;2.88;1.50;;;6.20;99.90;;;;;;2090876;28;20255;-73
2023/11/01 03:07:29;;;;;;;2.67;1.50;;;6.20;99.90;;;;;;2090716;28;20322;-73
2023/11/01 03:08:30;;;;;;;6.73;1.70;;;6.20;99.90;;;;;;2090120;28;20258;-73
2023/11/01 03:09:32;;;;;;;3.27;1.47;;;6.20;99.90;;;;;;2089571;28;20286;-72
2023/11/01 03:10:33;;;;;;;3.33;1.58;;;6.30;99.90;;;;;;2087997;28;20722;-73
2023/11/01 03:11:34;;;;;;;2.05;1.33;;;6.30;99.90;;;;;;2093580;28;20232;-73
2023/11/01 03:12:38;;;;;;;3.30;1.83;;;6.30;99.90;;;;;;2095053;28;20257;-73
2023/11/01 03:13:39;;;;;;;6.18;1.52;;;6.40;99.90;;;;;;2092086;28;20289;-73
2023/11/01 03:14:40;;;;;;;7.57;1.80;;;6.30;99.90;;;;;;2089935;28;20300;-73
2023/11/01 03:15:40;;;;;;;3.13;1.40;;;6.30;99.90;;;;;;2090398;28;20791;-73
2023/11/01 03:16:41;;;;;;;4.33;1.50;;;6.20;99.90;;;;;;2083956;28;20635;-73
2023/11/01 03:17:42;;;;;;;2.10;1.37;;;6.20;99.90;;;;;;2078795;28;20233;-73
2023/11/01 03:18:44;;;;;;;2.42;1.45;;;6.20;99.90;;;;;;2095143;28;20223;-73
2023/11/01 03:19:45;;;;;;;3.05;1.40;;;6.20;99.90;;;;;;2089003;28;20277;-73
2023/11/01 03:20:46;;;;;;;2.58;1.23;;;6.20;99.90;;;;;;2088269;28;20239;-72
2023/11/01 03:21:46;;;;;;;6.97;1.40;;;6.20;99.90;;;;;;2088184;28;20256;-72
2023/11/01 03:22:47;;;;;;;2.93;1.30;;;6.20;99.90;;;;;;2094387;28;20245;-72
2023/11/01 03:23:48;;;;;;;4.30;1.50;;;6.20;99.90;;;;;;2095762;28;20231;-73
2023/11/01 03:24:49;;;;;;;2.13;1.30;;;6.20;99.90;;;;;;2091212;28;20231;-73
2023/11/01 03:25:50;;;;;;;1.83;1.10;;;6.10;99.90;;;;;;2090030;28;20236;-73
2023/11/01 03:26:50;;;;;;;1.97;1.30;;;6.20;99.90;;;;;;2092904;28;20227;-71
2023/11/01 03:27:51;;;;;;;2.13;1.30;;;6.20;99.90;;;;;;2087770;28;20228;-72
2023/11/01 03:28:52;;;;;;;3.23;1.20;;;6.20;99.90;;;;;;2095221;28;20285;-72
2023/11/01 03:29:54;;;;;;;1.95;1.30;;;6.20;99.90;;;;;;2093749;28;20250;-73
2023/11/01 03:30:54;;;;;;;2.92;1.50;;;6.20;99.90;;;;;;2093693;28;20353;-72
2023/11/01 03:31:55;;;;;;;1.83;1.73;;;6.20;99.90;;;;;;2093038;28;20227;-72
2023/11/01 03:32:55;;;;;;;2.80;1.40;;;6.20;99.90;;;;;;2085806;28;20227;-72
2023/11/01 03:33:56;;;;;;;1.87;1.40;;;6.20;99.90;;;;;;2089471;28;20242;-72
2023/11/01 03:34:57;;;;;;;1.70;1.13;;;6.20;99.90;;;;;;2095473;28;20755;-72
2023/11/01 03:35:58;;;;;;;2.10;1.30;;;6.10;99.90;;;;;;2089977;28;20271;-72
2023/11/01 03:36:58;;;;;;;4.13;1.40;;;6.10;99.90;;;;;;2089515;28;20268;-72
2023/11/01 03:37:59;;;;;;;2.77;1.30;;;6.00;99.90;;;;;;2088359;28;20319;-73
2023/11/01 03:39:00;;;;;;;2.40;1.40;;;5.90;99.90;;;;;;2087729;28;20774;-72
2023/11/01 03:40:00;;;;;;;4.57;1.37;;;5.70;99.90;;;;;;2090401;28;20232;-72
2023/11/01 03:41:03;;;;;;;2.80;1.87;;;5.70;99.90;;;;;;2088904;28;20231;-73
2023/11/01 03:42:04;;;;;;;2.25;1.92;;;5.50;99.90;;;;;;2087164;28;20184;-72
2023/11/01 03:43:05;;;;;;;3.08;2.05;;;5.50;99.90;;;;;;2092093;28;20693;-73
2023/11/01 03:44:06;;;;;;;3.23;2.00;;;5.30;99.90;;;;;;2088244;28;20259;-74
2023/11/01 03:45:07;;;;;;;2.85;1.98;;;5.40;99.90;;;;;;2081022;28;20192;-73
2023/11/01 03:46:07;;;;;;;4.20;1.83;;;5.40;99.90;;;;;;2089637;28;20181;-72
2023/11/01 03:47:08;;;;;;;4.70;2.43;;;5.40;99.90;;;;;;2089655;28;20187;-73
2023/11/01 03:48:09;;;;;;;5.50;2.67;;;5.30;99.90;;;;;;2092072;28;20233;-73
2023/11/01 03:49:09;;;;;;;4.23;2.10;;;5.40;99.90;;;;;;2094360;28;20206;-73
2023/11/01 03:50:10;;;;;;;5.63;2.60;;;5.50;99.90;;;;;;2094354;28;20646;-73
2023/11/01 03:51:10;;;;;;;3.50;1.97;;;5.50;99.90;;;;;;2094604;28;20183;-73
2023/11/01 03:52:11;;;;;;;2.63;1.73;;;5.40;99.90;;;;;;2083574;28;20239;-73
2023/11/01 03:53:13;;;;;;;4.27;2.00;;;5.60;99.90;;;;;;2083538;28;20236;-73
2023/11/01 03:54:13;;;;;;;5.20;2.33;;;5.70;99.90;;;;;;2093202;28;20315;-73
2023/11/01 03:55:14;;;;;;;4.40;2.40;;;5.80;99.90;;;;;;2078253;28;20595;-72
2023/11/01 03:56:14;;;;;;;3.37;2.10;;;5.80;99.90;;;;;;2082713;28;20267;-73
2023/11/01 03:57:15;;;;;;;4.10;2.20;;;5.90;99.90;;;;;;2093808;28;20224;-73
2023/11/01 03:58:16;;;;;;;3.97;2.17;;;5.70;99.90;;;;;;2093028;28;20283;-73
2023/11/01 03:59:16;;;;;;;6.03;1.93;;;5.70;99.90;;;;;;2092397;28;20751;-73
2023/11/01 04:00:21;;;;;;;3.50;2.20;;;5.70;99.90;;;;;;2084885;28;20728;-73
2023/11/01 04:01:21;;;;;;;3.45;2.17;;;5.70;99.90;;;;;;2092078;28;20242;-72
2023/11/01 04:02:22;;;;;;;4.23;2.10;;;5.60;99.90;;;;;;2089652;28;20243;-73
2023/11/01 04:03:23;;;;;;;2.70;2.03;;;5.70;99.90;;;;;;2085059;28;20235;-73
2023/11/01 04:04:24;;;;;;;4.93;2.22;;;5.70;99.90;;;;;;2094952;28;20223;-73
2023/11/01 04:05:24;;;;;;;3.13;1.70;;;5.70;99.90;;;;;;2088215;28;20335;-72
2023/11/01 04:06:25;;;;;;;2.07;1.70;;;5.70;99.90;;;;;;2088576;28;20232;-72
2023/11/01 04:07:25;;;;;;;3.30;2.07;;;5.70;99.90;;;;;;2090490;28;20228;-72
2023/11/01 04:08:26;;;;;;;3.37;2.30;;;5.60;99.90;;;;;;2093117;28;20263;-73
2023/11/01 04:09:27;;;;;;;5.27;2.47;;;5.50;99.90;;;;;;2086969;28;20319;-73
2023/11/01 04:10:27;;;;;;;5.37;2.37;;;5.60;99.90;;;;;;2086975;28;20224;-73
2023/11/01 04:11:30;;;;;;;4.80;3.10;;;5.70;99.90;;;;;;2084939;28;20251;-73
2023/11/01 04:12:30;;;;;;;3.03;2.30;;;5.70;99.90;;;;;;2095070;28;20227;-73
2023/11/01 04:13:32;;;;;;;3.57;2.63;;;5.80;99.90;;;;;;2090873;28;20239;-73
2023/11/01 04:14:32;;;;;;;3.22;2.00;;;5.90;99.90;;;;;;2089153;28;20239;-73
2023/11/01 04:15:33;;;;;;;3.60;2.23;;;6.00;99.90;;;;;;2087320;28;20227;-73
2023/11/01 04:16:34;;;;;;;3.60;2.03;;;6.00;99.90;;;;;;2092219;28;20778;-72
2023/11/01 04:17:34;;;;;;;3.90;2.30;;;6.00;99.90;;;;;;2083670;28;20235;-72
2023/11/01 04:18:35;;;;;;;5.57;2.00;;;6.00;99.90;;;;;;2082250;28;20733;-73
2023/11/01 04:19:35;;;;;;;5.07;1.97;;;6.10;99.90;;;;;;2083842;28;20684;-73
2023/11/01 04:20:36;;;;;;;2.03;1.73;;;6.10;99.90;;;;;;2088870;28;20258;-72
2023/11/01 04:21:37;;;;;;;4.30;2.30;;;6.10;99.90;;;;;;2096119;28;20231;-73
2023/11/01 04:22:38;;;;;;;6.47;2.53;;;6.00;99.90;;;;;;2089403;28;20247;-73
2023/11/01 04:23:39;;;;;;;3.92;2.17;;;6.00;99.90;;;;;;2091193;28;20276;-73
2023/11/01 04:24:39;;;;;;;2.03;1.80;;;6.10;99.90;;;;;;2090151;28;20717;-72
2023/11/01 04:25:40;;;;;;;3.97;2.33;;;6.10;99.90;;;;;;2091744;28;20274;-73
2023/11/01 04:26:41;;;;;;;3.07;1.70;;;6.10;99.90;;;;;;2092431;28;20219;-73
2023/11/01 04:27:42;;;;;;;8.15;1.88;;;6.10;99.90;;;;;;2094398;28;20624;-73
2023/11/01 04:28:42;;;;;;;4.03;1.60;;;6.10;99.90;;;;;;2090224;28;20301;-73
2023/11/01 04:29:43;;;;;;;2.00;1.57;;;6.10;99.90;;;;;;2089924;28;20235;-71
2023/11/01 04:30:44;;;;;;;4.80;1.90;;;6.10;99.90;;;;;;2088423;28;20684;-73
2023/11/01 04:31:45;;;;;;;2.67;1.70;;;6.00;99.90;;;;;;2089008;28;20228;-73
2023/11/01 04:32:45;;;;;;;2.27;1.70;;;6.00;99.90;;;;;;2092609;28;20227;-73
2023/11/01 04:33:46;;;;;;;4.10;1.60;;;5.90;99.90;;;;;;2093505;28;20235;-73
2023/11/01 04:34:49;;;;;;;2.33;1.40;;;5.90;99.90;;;;;;2094496;28;20266;-73
2023/11/01 04:35:53;;;;;;;5.05;1.45;;;5.90;99.90;;;;;;2089118;28;20308;-72
2023/11/01 04:36:54;;;;;;;3.08;1.90;;;5.90;99.90;;;;;;2091671;28;20246;-72
2023/11/01 04:37:56;;;;;;;4.00;1.90;;;5.90;99.90;;;;;;2094554;28;20245;-73
2023/11/01 04:38:57;;;;;;;2.42;1.52;;;5.80;99.90;;;;;;2089021;28;20251;-73
2023/11/01 04:39:58;;;;;;;2.43;1.60;;;5.80;99.90;;;;;;2090878;28;20254;-73
2023/11/01 04:40:59;;;;;;;1.50;1.40;;;5.70;99.90;;;;;;2095025;28;20302;-73
2023/11/01 04:41:59;;;;;;;3.42;1.50;;;5.70;99.90;;;;;;2091964;28;20611;-73
2023/11/01 04:43:00;;;;;;;2.40;1.83;;;5.70;99.90;;;;;;2088832;28;20224;-73
2023/11/01 04:44:01;;;;;;;3.63;1.60;;;5.70;99.90;;;;;;2087917;28;20689;-74
2023/11/01 04:45:01;;;;;;;2.30;1.57;;;5.70;99.90;;;;;;2087112;28;20184;-74
2023/11/01 04:46:02;;;;;;;4.87;1.70;;;5.70;99.90;;;;;;2091769;28;20185;-73
2023/11/01 04:47:04;;;;;;;2.45;1.70;;;5.70;99.90;;;;;;2090932;28;20198;-73
2023/11/01 04:48:05;;;;;;;3.63;2.00;;;5.70;99.90;;;;;;2089323;28;20239;-73
2023/11/01 04:49:05;;;;;;;2.73;1.80;;;5.70;99.90;;;;;;2090305;28;20199;-73
2023/11/01 04:50:08;;;;;;;3.20;1.50;;;5.60;99.90;;;;;;2088666;28;20198;-73
2023/11/01 04:51:09;;;;;;;1.92;1.55;;;5.60;99.90;;;;;;2090231;28;20191;-73
2023/11/01 04:52:09;;;;;;;2.10;1.83;;;5.50;99.90;;;;;;2089950;28;20212;-73
2023/11/01 04:53:10;;;;;;;3.37;1.80;;;5.50;99.90;;;;;;2090296;28;20255;-73
2023/11/01 04:54:10;;;;;;;2.40;1.57;;;5.40;99.90;;;;;;2088722;28;20203;-73
2023/11/01 04:55:11;;;;;;;3.97;1.80;;;5.40;99.90;;;;;;2094084;28;20258;-73
2023/11/01 04:56:12;;;;;;;3.43;1.60;;;5.40;99.90;;;;;;2093786;28;20750;-73
2023/11/01 04:57:12;;;;;;;2.70;1.70;;;5.30;99.90;;;;;;2091296;28;20177;-73
2023/11/01 04:58:13;;;;;;;5.57;1.93;;;5.30;99.90;;;;;;2089763;28;20558;-73
2023/11/01 04:59:13;;;;;;;4.23;1.90;;;5.20;99.90;;;;;;2091415;28;20265;-73
2023/11/01 05:00:17;;;;;;;3.67;1.60;;;5.20;99.90;;;;;;2088488;28;20184;-72
2023/11/01 05:01:17;;;;;;;2.20;2.00;;;5.10;99.90;;;;;;2087697;28;20673;-72
2023/11/01 05:02:18;;;;;;;2.93;2.20;;;5.10;99.90;;;;;;2086878;28;20298;-71
2023/11/01 05:03:18;;;;;;;3.97;2.07;;;5.10;99.90;;;;;;2089432;28;20210;-73
2023/11/01 05:04:19;;;;;;;2.43;1.90;;;5.10;99.90;;;;;;2080795;28;20193;-73
2023/11/01 05:05:19;;;;;;;3.90;1.83;;;4.90;99.90;;;;;;2091388;28;20188;-73
2023/11/01 05:06:20;;;;;;;10.57;3.03;;;4.70;99.90;;;;;;2089705;28;20291;-73
2023/11/01 05:07:21;;;;;;;23.83;4.67;;;4.60;99.90;;;;;;2091474;28;20314;-73
2023/11/01 05:08:21;;;;;;;6.40;3.00;;;4.50;99.90;;;;;;2094689;28;20698;-73
2023/11/01 05:09:22;;;;;;;4.77;2.40;;;4.50;99.90;;;;;;2091139;28;20246;-74
2023/11/01 05:10:23;;;;;;;2.73;2.20;;;4.50;99.90;;;;;;2080258;28;20604;-73
2023/11/01 05:11:23;;;;;;;3.77;2.30;;;4.50;99.90;;;;;;2089368;28;20311;-73
2023/11/01 05:12:24;;;;;;;3.33;2.03;;;4.60;99.90;;;;;;2090413;28;20739;-74
2023/11/01 05:13:24;;;;;;;3.37;1.77;;;4.60;99.90;;;;;;2092755;28;20233;-74
2023/11/01 05:14:25;;;;;;;3.03;1.97;;;4.70;99.90;;;;;;2088633;28;20313;-74
2023/11/01 05:15:25;;;;;;;2.70;1.73;;;4.60;99.90;;;;;;2089900;28;20231;-73
2023/11/01 05:16:26;;;;;;;2.43;1.67;;;4.60;99.90;;;;;;2088917;28;20370;-74
2023/11/01 05:17:27;;;;;;;2.37;1.60;;;4.70;99.90;;;;;;2092398;28;20259;-74
2023/11/01 05:18:27;;;;;;;3.10;2.00;;;4.70;99.90;;;;;;2084992;28;20261;-74
2023/11/01 05:19:30;;;;;;;2.43;1.67;;;4.80;99.90;;;;;;2084095;28;20231;-74
2023/11/01 05:20:30;;;;;;;1.67;1.55;;;4.80;99.90;;;;;;2089849;28;20239;-73
2023/11/01 05:21:31;;;;;;;4.07;1.60;;;4.70;99.90;;;;;;2089866;28;20228;-74